Time;durP1;ratioP1;P1;durP2;ratioP2;P2;SDS_P1;SDS_P2;PMS_P1;PMS_P2;Temp;Humidity;BMP_temperature;BMP_pressure;BME280_temperature;BME280_humidity;BME280_pressure;Samples;Min_cycle;Max_cycle;Signal;HPM_P1;HPM_P2
2020/12/22 00:00:47;;;;;;;0.60;0.30;;;;;;;;;;5050982;28;20518;-68
2020/12/22 00:03:12;;;;;;;2.03;0.50;;;;;;;;;;5050910;28;20252;-68
2020/12/22 00:05:37;;;;;;;0.40;0.25;;;;;;;;;;5049759;28;20279;-69
2020/12/22 00:08:09;;;;;;;0.45;0.30;;;;;;;;;;5048924;28;20021;-68
2020/12/22 00:10:34;;;;;;;1.42;0.57;;;;;;;;;;5049615;28;20102;-68
2020/12/22 00:12:59;;;;;;;1.67;0.40;;;;;;;;;;5051046;28;20067;-70
2020/12/22 00:15:24;;;;;;;0.40;0.20;;;;;;;;;;5051106;28;20280;-68
2020/12/22 00:17:49;;;;;;;4.60;0.40;;;;;;;;;;5051519;28;20359;-69
2020/12/22 00:20:15;;;;;;;0.80;0.40;;;;;;;;;;5050737;28;20060;-69
2020/12/22 00:22:40;;;;;;;0.85;0.40;;;;;;;;;;5051374;28;20263;-69
2020/12/22 00:25:05;;;;;;;1.60;0.50;;;;;;;;;;5050231;28;20099;-68
2020/12/22 00:27:33;;;;;;;4.15;0.40;;;;;;;;;;5050838;28;20785;-69
2020/12/22 00:29:59;;;;;;;0.85;0.20;;;;;;;;;;5050849;28;20159;-68
2020/12/22 00:32:24;;;;;;;1.42;0.43;;;;;;;;;;5051383;28;20339;-68
2020/12/22 00:34:49;;;;;;;0.50;0.30;;;;;;;;;;5050617;28;20029;-69
2020/12/22 00:37:14;;;;;;;0.67;0.37;;;;;;;;;;5050534;28;20083;-68
2020/12/22 00:39:39;;;;;;;0.20;0.20;;;;;;;;;;5050607;28;20820;-69
2020/12/22 00:42:04;;;;;;;0.90;0.43;;;;;;;;;;5050995;28;20262;-69
2020/12/22 00:44:30;;;;;;;0.70;0.30;;;;;;;;;;5051155;28;20814;-69
2020/12/22 00:46:55;;;;;;;0.88;0.38;;;;;;;;;;5050693;28;20275;-70
2020/12/22 00:49:20;;;;;;;0.68;0.40;;;;;;;;;;5050956;28;20078;-68
2020/12/22 00:51:45;;;;;;;1.17;0.40;;;;;;;;;;5050759;28;20024;-69
2020/12/22 00:54:11;;;;;;;0.70;0.30;;;;;;;;;;5051317;28;20434;-69
2020/12/22 00:56:36;;;;;;;0.52;0.30;;;;;;;;;;5050458;28;20358;-67
2020/12/22 00:59:01;;;;;;;0.52;0.25;;;;;;;;;;5050550;28;20099;-69
2020/12/22 01:01:30;;;;;;;0.13;0.13;;;;;;;;;;5050560;28;20078;-69
2020/12/22 01:03:55;;;;;;;0.20;0.20;;;;;;;;;;5050190;28;20274;-68
2020/12/22 01:06:20;;;;;;;2.35;0.65;;;;;;;;;;5050932;28;20017;-68
2020/12/22 01:08:46;;;;;;;1.45;0.28;;;;;;;;;;5050729;28;20044;-70
2020/12/22 01:11:11;;;;;;;0.22;0.20;;;;;;;;;;5050206;28;20049;-69
2020/12/22 01:13:36;;;;;;;1.50;0.40;;;;;;;;;;5050225;28;20366;-69
2020/12/22 01:16:01;;;;;;;0.40;0.20;;;;;;;;;;5050358;28;20025;-69
2020/12/22 01:18:26;;;;;;;1.10;0.30;;;;;;;;;;5050621;28;20489;-70
2020/12/22 01:20:52;;;;;;;0.53;0.20;;;;;;;;;;5050007;28;20040;-68
2020/12/22 01:23:17;;;;;;;8.77;0.40;;;;;;;;;;5049939;28;20274;-70
2020/12/22 01:25:42;;;;;;;0.52;0.13;;;;;;;;;;5050025;28;20382;-70
2020/12/22 01:28:07;;;;;;;0.45;0.20;;;;;;;;;;5049989;28;20466;-69
2020/12/22 01:30:35;;;;;;;0.70;0.38;;;;;;;;;;5049303;28;20103;-69
2020/12/22 01:33:00;;;;;;;0.73;0.20;;;;;;;;;;5050366;28;20085;-69
2020/12/22 01:35:25;;;;;;;1.10;0.30;;;;;;;;;;5048951;28;20615;-70
2020/12/22 01:37:50;;;;;;;0.10;0.10;;;;;;;;;;5049464;28;20267;-69
2020/12/22 01:40:15;;;;;;;0.20;0.20;;;;;;;;;;5049554;28;20662;-69
2020/12/22 01:42:44;;;;;;;1.17;0.20;;;;;;;;;;5050191;28;20270;-69
2020/12/22 01:45:10;;;;;;;0.80;0.30;;;;;;;;;;5048622;28;20263;-69
2020/12/22 01:47:35;;;;;;;0.13;0.10;;;;;;;;;;5050103;28;20029;-69
2020/12/22 01:50:00;;;;;;;0.20;0.20;;;;;;;;;;5048812;28;20039;-66
2020/12/22 01:52:25;;;;;;;0.17;0.10;;;;;;;;;;5050636;28;20401;-67
2020/12/22 01:54:51;;;;;;;0.03;0.03;;;;;;;;;;5049744;28;20287;-66
2020/12/22 01:57:16;;;;;;;1.50;0.17;;;;;;;;;;5050177;28;21003;-67
2020/12/22 01:59:41;;;;;;;1.05;0.30;;;;;;;;;;5049095;28;20477;-66
2020/12/22 02:02:07;;;;;;;0.20;0.20;;;;;;;;;;5049688;28;20056;-67
2020/12/22 02:04:34;;;;;;;0.17;0.13;;;;;;;;;;5048653;28;20283;-68
2020/12/22 02:06:59;;;;;;;1.85;0.20;;;;;;;;;;5048572;28;20051;-67
2020/12/22 02:09:24;;;;;;;0.38;0.10;;;;;;;;;;5049125;28;20458;-67
2020/12/22 02:11:50;;;;;;;0.10;0.10;;;;;;;;;;5049314;28;20100;-67
2020/12/22 02:14:15;;;;;;;0.20;0.20;;;;;;;;;;5049692;28;20283;-68
2020/12/22 02:16:40;;;;;;;2.47;0.20;;;;;;;;;;5049363;28;20021;-67
2020/12/22 02:19:05;;;;;;;0.32;0.30;;;;;;;;;;5049580;28;20017;-67
2020/12/22 02:21:30;;;;;;;0.25;0.17;;;;;;;;;;5049133;28;20048;-67
2020/12/22 02:23:56;;;;;;;0.25;0.20;;;;;;;;;;5049240;28;20469;-67
2020/12/22 02:26:24;;;;;;;0.30;0.28;;;;;;;;;;5048830;28;20032;-67
2020/12/22 02:28:50;;;;;;;0.40;0.15;;;;;;;;;;5049895;28;20017;-67
2020/12/22 02:31:16;;;;;;;0.25;0.20;;;;;;;;;;5049247;28;20489;-67
2020/12/22 02:33:41;;;;;;;0.90;0.20;;;;;;;;;;5049486;28;20060;-67
2020/12/22 02:36:08;;;;;;;0.40;0.20;;;;;;;;;;5048130;28;20025;-68
2020/12/22 02:38:33;;;;;;;0.50;0.30;;;;;;;;;;5049427;28;20504;-69
2020/12/22 02:40:58;;;;;;;1.67;0.20;;;;;;;;;;5048622;28;20060;-67
2020/12/22 02:43:23;;;;;;;0.40;0.40;;;;;;;;;;5050092;28;20255;-68
2020/12/22 02:45:48;;;;;;;4.40;0.27;;;;;;;;;;5049446;28;20310;-67
2020/12/22 02:48:13;;;;;;;2.13;0.37;;;;;;;;;;5051967;28;20604;-68
2020/12/22 02:50:39;;;;;;;1.23;0.30;;;;;;;;;;5053060;28;20347;-67
2020/12/22 02:53:05;;;;;;;1.25;0.40;;;;;;;;;;5052799;28;20029;-67
2020/12/22 02:55:30;;;;;;;1.20;0.40;;;;;;;;;;5052585;28;20500;-68
2020/12/22 02:57:55;;;;;;;3.85;0.30;;;;;;;;;;5049923;28;20032;-67
2020/12/22 03:00:20;;;;;;;0.68;0.20;;;;;;;;;;5052747;28;20023;-68
2020/12/22 03:02:46;;;;;;;0.25;0.20;;;;;;;;;;5052827;28;20023;-68
2020/12/22 03:05:11;;;;;;;3.27;0.30;;;;;;;;;;5051455;28;20059;-68
2020/12/22 03:07:37;;;;;;;1.93;0.23;;;;;;;;;;5073266;22;20366;-69
2020/12/22 03:10:05;;;;;;;0.68;0.30;;;;;;;;;;5031479;28;20272;-68
2020/12/22 03:12:30;;;;;;;2.80;0.38;;;;;;;;;;5033254;28;20051;-68
2020/12/22 03:14:55;;;;;;;0.47;0.30;;;;;;;;;;5032256;28;20489;-68
2020/12/22 03:17:20;;;;;;;1.13;0.50;;;;;;;;;;5033148;28;20275;-69
2020/12/22 03:19:45;;;;;;;0.93;0.10;;;;;;;;;;5032664;28;20816;-69
2020/12/22 03:22:11;;;;;;;0.20;0.20;;;;;;;;;;5032428;28;20256;-68
2020/12/22 03:24:36;;;;;;;0.93;0.40;;;;;;;;;;5031926;28;20624;-68
2020/12/22 03:27:01;;;;;;;1.27;0.27;;;;;;;;;;5032665;28;20268;-68
2020/12/22 03:29:26;;;;;;;2.07;0.83;;;;;;;;;;5031543;28;20624;-68
2020/12/22 03:31:51;;;;;;;0.50;0.20;;;;;;;;;;5032256;28;20350;-68
2020/12/22 03:34:16;;;;;;;1.07;0.40;;;;;;;;;;5031535;28;20284;-68
2020/12/22 03:36:43;;;;;;;0.57;0.20;;;;;;;;;;5032040;28;20307;-68
2020/12/22 03:39:08;;;;;;;0.20;0.20;;;;;;;;;;5032652;28;20048;-68
2020/12/22 03:41:33;;;;;;;0.20;0.20;;;;;;;;;;5031500;28;20098;-68
2020/12/22 03:43:58;;;;;;;2.75;0.22;;;;;;;;;;5032402;28;20065;-68
2020/12/22 03:46:26;;;;;;;3.33;0.30;;;;;;;;;;5032389;28;20083;-68
2020/12/22 03:48:51;;;;;;;1.90;0.20;;;;;;;;;;5032402;28;20520;-68
2020/12/22 03:51:16;;;;;;;0.30;0.20;;;;;;;;;;5033031;28;20022;-68
2020/12/22 03:53:41;;;;;;;0.75;0.20;;;;;;;;;;5030890;28;20295;-68
2020/12/22 03:56:06;;;;;;;0.67;0.30;;;;;;;;;;5031975;28;20221;-68
2020/12/22 03:58:32;;;;;;;0.20;0.10;;;;;;;;;;5031970;28;20272;-69
2020/12/22 04:00:58;;;;;;;0.57;0.20;;;;;;;;;;5029144;28;20022;-68
2020/12/22 04:03:25;;;;;;;0.70;0.30;;;;;;;;;;5031830;28;20021;-68
2020/12/22 04:05:50;;;;;;;1.38;0.40;;;;;;;;;;5031596;28;20024;-68
2020/12/22 04:08:15;;;;;;;0.60;0.30;;;;;;;;;;5030480;28;20266;-68
2020/12/22 04:10:40;;;;;;;1.37;0.27;;;;;;;;;;5031363;28;20267;-69
2020/12/22 04:13:05;;;;;;;1.70;0.37;;;;;;;;;;5031389;28;20268;-68
2020/12/22 04:15:30;;;;;;;1.50;0.20;;;;;;;;;;5032155;28;20794;-68
2020/12/22 04:17:56;;;;;;;3.22;0.50;;;;;;;;;;5031572;28;20029;-68
2020/12/22 04:20:21;;;;;;;2.38;0.30;;;;;;;;;;5032046;28;20013;-69
2020/12/22 04:22:46;;;;;;;0.63;0.20;;;;;;;;;;5031267;28;20017;-68
2020/12/22 04:25:11;;;;;;;0.10;0.10;;;;;;;;;;5031755;28;20302;-68
2020/12/22 04:27:36;;;;;;;3.83;0.20;;;;;;;;;;5031537;28;20316;-68
2020/12/22 04:30:02;;;;;;;0.13;0.13;;;;;;;;;;5030814;28;20025;-69
2020/12/22 04:32:27;;;;;;;0.30;0.20;;;;;;;;;;5031528;28;20268;-68
2020/12/22 04:34:54;;;;;;;0.67;0.20;;;;;;;;;;5030761;28;20025;-68
2020/12/22 04:37:19;;;;;;;0.20;0.20;;;;;;;;;;5031562;28;20649;-69
2020/12/22 04:39:44;;;;;;;0.43;0.20;;;;;;;;;;5031097;28;20490;-68
2020/12/22 04:42:10;;;;;;;1.17;0.27;;;;;;;;;;5031213;28;20264;-69
2020/12/22 04:44:35;;;;;;;0.13;0.10;;;;;;;;;;5031075;28;20268;-68
2020/12/22 04:47:02;;;;;;;0.93;0.20;;;;;;;;;;5030783;28;20025;-68
2020/12/22 04:49:30;;;;;;;1.02;0.22;;;;;;;;;;5031422;28;20021;-68
2020/12/22 04:51:55;;;;;;;3.40;0.20;;;;;;;;;;5030496;28;20049;-68
2020/12/22 04:54:21;;;;;;;0.25;0.13;;;;;;;;;;5030516;28;20134;-68
2020/12/22 04:56:46;;;;;;;0.30;0.20;;;;;;;;;;5030785;28;20017;-69
2020/12/22 04:59:12;;;;;;;0.20;0.20;;;;;;;;;;5030573;28;20344;-68
2020/12/22 05:01:37;;;;;;;0.28;0.17;;;;;;;;;;5030850;28;20024;-68
2020/12/22 05:04:03;;;;;;;0.85;0.30;;;;;;;;;;5030499;28;20581;-68
2020/12/22 05:06:28;;;;;;;2.40;0.40;;;;;;;;;;5031178;28;20029;-68
2020/12/22 05:08:53;;;;;;;1.07;0.37;;;;;;;;;;5030493;28;20325;-68
2020/12/22 05:11:18;;;;;;;1.00;0.20;;;;;;;;;;5029897;28;20360;-68
2020/12/22 05:13:46;;;;;;;0.60;0.20;;;;;;;;;;5028352;28;20264;-69
2020/12/22 05:16:11;;;;;;;0.70;0.20;;;;;;;;;;5030396;28;20283;-68
2020/12/22 05:18:36;;;;;;;0.50;0.20;;;;;;;;;;5031306;28;20028;-69
2020/12/22 05:21:01;;;;;;;3.30;0.35;;;;;;;;;;5029819;28;20282;-69
2020/12/22 05:23:27;;;;;;;3.03;0.35;;;;;;;;;;5030248;28;20104;-69
2020/12/22 05:25:52;;;;;;;0.13;0.10;;;;;;;;;;5030356;28;20043;-69
2020/12/22 05:28:19;;;;;;;0.20;0.10;;;;;;;;;;5030498;28;20112;-68
2020/12/22 05:30:44;;;;;;;0.43;0.35;;;;;;;;;;5029331;28;20032;-69
2020/12/22 05:33:09;;;;;;;0.10;0.10;;;;;;;;;;5029533;28;20018;-69
2020/12/22 05:35:35;;;;;;;1.35;0.30;;;;;;;;;;5030587;28;20156;-68
2020/12/22 05:38:01;;;;;;;3.90;0.40;;;;;;;;;;5029967;28;20048;-68
2020/12/22 05:40:26;;;;;;;1.05;0.20;;;;;;;;;;5030150;28;20021;-68
2020/12/22 05:42:52;;;;;;;0.25;0.25;;;;;;;;;;5029508;28;20367;-68
2020/12/22 05:45:18;;;;;;;0.57;0.30;;;;;;;;;;5030449;28;20025;-68
2020/12/22 05:47:43;;;;;;;0.50;0.23;;;;;;;;;;5030060;28;20044;-68
2020/12/22 05:50:09;;;;;;;0.68;0.30;;;;;;;;;;5030078;28;20272;-68
2020/12/22 05:52:34;;;;;;;0.73;0.30;;;;;;;;;;5028565;28;20021;-68
2020/12/22 05:54:59;;;;;;;0.32;0.17;;;;;;;;;;5029721;28;20451;-69
2020/12/22 05:57:28;;;;;;;1.15;0.20;;;;;;;;;;5029571;28;20021;-69
2020/12/22 05:59:54;;;;;;;18.23;11.35;;;;;;;;;;5030422;28;20025;-69
2020/12/22 06:02:26;;;;;;;18.17;10.57;;;;;;;;;;5027993;28;20358;-69
2020/12/22 06:04:52;;;;;;;6.90;2.72;;;;;;;;;;5028903;28;20043;-69
2020/12/22 06:07:17;;;;;;;7.97;4.20;;;;;;;;;;5028971;28;20026;-69
2020/12/22 06:09:42;;;;;;;0.52;0.40;;;;;;;;;;5029407;28;20401;-69
2020/12/22 06:12:08;;;;;;;0.32;0.13;;;;;;;;;;5028659;28;20306;-68
2020/12/22 06:14:34;;;;;;;2.85;0.20;;;;;;;;;;5028864;28;20338;-68
2020/12/22 06:17:09;;;;;;;1.35;0.20;;;;;;;;;;5029411;28;20021;-68
2020/12/22 06:19:35;;;;;;;0.65;0.17;;;;;;;;;;5029633;28;20075;-69
2020/12/22 06:22:00;;;;;;;1.60;0.30;;;;;;;;;;5029438;28;20033;-69
2020/12/22 06:24:26;;;;;;;0.20;0.20;;;;;;;;;;5033303;28;20418;-69
2020/12/22 06:27:01;;;;;;;0.70;0.30;;;;;;;;;;5033650;28;20083;-69
2020/12/22 06:29:26;;;;;;;1.30;0.40;;;;;;;;;;5033562;28;20486;-69
2020/12/22 06:31:51;;;;;;;0.40;0.20;;;;;;;;;;5033307;28;20101;-69
2020/12/22 06:34:23;;;;;;;0.20;0.20;;;;;;;;;;5033463;28;20437;-69
2020/12/22 06:36:55;;;;;;;6.55;0.35;;;;;;;;;;5031730;28;20022;-69
2020/12/22 06:39:24;;;;;;;4.63;0.38;;;;;;;;;;5032115;28;20029;-69
2020/12/22 06:41:50;;;;;;;0.82;0.32;;;;;;;;;;5033254;28;20386;-69
2020/12/22 06:44:22;;;;;;;0.10;0.10;;;;;;;;;;5033126;28;20017;-69
2020/12/22 06:46:51;;;;;;;0.60;0.20;;;;;;;;;;5032536;28;20100;-69
2020/12/22 06:49:17;;;;;;;0.88;0.40;;;;;;;;;;5033296;28;20031;-68
2020/12/22 06:51:42;;;;;;;1.00;0.20;;;;;;;;;;5032889;28;20022;-68
2020/12/22 06:54:13;;;;;;;0.20;0.13;;;;;;;;;;5037353;28;20457;-69
2020/12/22 06:56:39;;;;;;;1.58;0.50;;;;;;;;;;5036154;28;20021;-69
2020/12/22 06:59:05;;;;;;;2.15;0.38;;;;;;;;;;5032230;28;20470;-68
2020/12/22 07:01:30;;;;;;;0.20;0.13;;;;;;;;;;5032902;28;20039;-69
2020/12/22 07:04:11;;;;;;;1.98;0.45;;;;;;;;;;5031300;28;20105;-68
2020/12/22 07:06:42;;;;;;;0.10;0.10;;;;;;;;;;5029309;28;20021;-68
2020/12/22 07:09:10;;;;;;;3.88;0.32;;;;;;;;;;5030858;28;20032;-69
2020/12/22 07:11:36;;;;;;;0.57;0.28;;;;;;;;;;5031670;28;20029;-69
2020/12/22 07:14:02;;;;;;;2.28;0.30;;;;;;;;;;5032452;28;20026;-69
2020/12/22 07:16:28;;;;;;;2.83;0.30;;;;;;;;;;5031924;28;20033;-69
2020/12/22 07:18:53;;;;;;;2.73;0.40;;;;;;;;;;5031685;28;20367;-69
2020/12/22 07:21:18;;;;;;;1.75;0.40;;;;;;;;;;5032431;28;20284;-69
2020/12/22 07:23:44;;;;;;;2.07;0.60;;;;;;;;;;5032299;28;20506;-69
2020/12/22 07:26:11;;;;;;;1.23;0.35;;;;;;;;;;5031700;28;20260;-69
2020/12/22 07:28:37;;;;;;;1.08;0.40;;;;;;;;;;5031530;28;20014;-69
2020/12/22 07:31:03;;;;;;;3.50;0.77;;;;;;;;;;5031571;28;20093;-69
2020/12/22 07:33:28;;;;;;;1.13;0.40;;;;;;;;;;5030818;28;20556;-69
2020/12/22 07:35:53;;;;;;;2.83;0.63;;;;;;;;;;5030858;28;20303;-69
2020/12/22 07:38:18;;;;;;;1.27;0.40;;;;;;;;;;5031473;28;20260;-69
2020/12/22 07:40:43;;;;;;;3.57;0.60;;;;;;;;;;5030560;28;20648;-69
2020/12/22 07:43:09;;;;;;;2.40;0.60;;;;;;;;;;5032203;28;20259;-69
2020/12/22 07:45:35;;;;;;;0.60;0.50;;;;;;;;;;5031923;28;20082;-69
2020/12/22 07:48:06;;;;;;;1.30;0.80;;;;;;;;;;5032082;28;20115;-69
2020/12/22 07:50:32;;;;;;;7.05;1.10;;;;;;;;;;5030420;28;20049;-68
2020/12/22 07:52:57;;;;;;;5.75;0.77;;;;;;;;;;5031790;28;20462;-69
2020/12/22 07:55:23;;;;;;;4.47;1.27;;;;;;;;;;5026786;28;20108;-69
2020/12/22 07:57:48;;;;;;;1.35;0.73;;;;;;;;;;5029898;28;20359;-69
2020/12/22 08:00:13;;;;;;;2.13;0.50;;;;;;;;;;5029601;28;20104;-69
2020/12/22 08:02:40;;;;;;;1.23;0.80;;;;;;;;;;5030138;28;20021;-69
2020/12/22 08:05:12;;;;;;;2.05;0.88;;;;;;;;;;5029528;28;20268;-69
2020/12/22 08:07:39;;;;;;;3.67;1.10;;;;;;;;;;5030348;28;20766;-69
2020/12/22 08:10:08;;;;;;;3.17;1.13;;;;;;;;;;5029110;28;20099;-69
2020/12/22 08:12:33;;;;;;;6.75;0.90;;;;;;;;;;5030163;28;20089;-69
2020/12/22 08:14:58;;;;;;;7.65;1.27;;;;;;;;;;5029418;28;20026;-68
2020/12/22 08:17:27;;;;;;;5.53;1.70;;;;;;;;;;5030793;28;20026;-69
2020/12/22 08:19:53;;;;;;;10.38;2.35;;;;;;;;;;5019781;28;20029;-69
2020/12/22 08:22:18;;;;;;;9.90;2.70;;;;;;;;;;5031034;28;20021;-70
2020/12/22 08:24:43;;;;;;;5.53;2.33;;;;;;;;;;5031967;28;20021;-69
2020/12/22 08:27:08;;;;;;;8.32;2.78;;;;;;;;;;5031568;28;20029;-69
2020/12/22 08:29:37;;;;;;;7.20;4.07;;;;;;;;;;5031536;28;20013;-69
2020/12/22 08:32:02;;;;;;;14.40;3.20;;;;;;;;;;5031253;28;20029;-68
2020/12/22 08:34:28;;;;;;;9.10;2.55;;;;;;;;;;5031307;28;20489;-69
2020/12/22 08:36:53;;;;;;;5.20;1.92;;;;;;;;;;5030892;28;20425;-69
2020/12/22 08:39:18;;;;;;;5.63;1.33;;;;;;;;;;5030885;28;20463;-69
2020/12/22 08:41:45;;;;;;;6.60;1.10;;;;;;;;;;5031506;28;20040;-69
2020/12/22 08:44:11;;;;;;;8.40;1.35;;;;;;;;;;5030573;28;20017;-69
2020/12/22 08:46:37;;;;;;;3.30;1.10;;;;;;;;;;5031312;28;20044;-69
2020/12/22 08:49:10;;;;;;;3.65;1.15;;;;;;;;;;5030296;28;20087;-70
2020/12/22 08:51:35;;;;;;;1.35;0.82;;;;;;;;;;5031174;28;20104;-69
2020/12/22 08:54:01;;;;;;;2.63;0.73;;;;;;;;;;5030921;28;20112;-69
2020/12/22 08:56:26;;;;;;;2.58;0.50;;;;;;;;;;5027232;28;20017;-69
2020/12/22 08:59:01;;;;;;;4.32;0.88;;;;;;;;;;5026597;28;20028;-68
2020/12/22 09:01:28;;;;;;;0.93;0.50;;;;;;;;;;5027431;28;20478;-68
2020/12/22 09:03:54;;;;;;;2.83;0.82;;;;;;;;;;5030091;28;20101;-69
2020/12/22 09:06:31;;;;;;;4.75;0.65;;;;;;;;;;5030971;28;20096;-69
2020/12/22 09:08:59;;;;;;;4.07;0.70;;;;;;;;;;5022764;28;20022;-69
2020/12/22 09:11:25;;;;;;;9.43;1.00;;;;;;;;;;5023914;28;20022;-68
2020/12/22 09:14:07;;;;;;;5.20;0.95;;;;;;;;;;5025602;28;20048;-69
2020/12/22 09:16:52;;;;;;;9.18;1.27;;;;;;;;;;5025262;28;20111;-69
2020/12/22 09:19:18;;;;;;;8.40;1.88;;;;;;;;;;5022843;28;20041;-68
2020/12/22 09:21:44;;;;;;;8.40;2.00;;;;;;;;;;5027554;28;20021;-70
2020/12/22 09:24:14;;;;;;;4.00;1.88;;;;;;;;;;5020148;28;20018;-69
2020/12/22 09:26:50;;;;;;;6.13;2.03;;;;;;;;;;5027898;28;20021;-69
2020/12/22 09:29:15;;;;;;;5.95;1.58;;;;;;;;;;5022203;28;20386;-69
2020/12/22 09:31:41;;;;;;;2.73;0.80;;;;;;;;;;5021499;28;20022;-69
2020/12/22 09:34:06;;;;;;;4.80;1.03;;;;;;;;;;5030712;28;20398;-69
2020/12/22 09:36:31;;;;;;;3.63;0.90;;;;;;;;;;5029757;28;20510;-69
2020/12/22 09:38:57;;;;;;;4.03;0.70;;;;;;;;;;5030492;28;20268;-68
2020/12/22 09:41:22;;;;;;;2.20;1.00;;;;;;;;;;5028339;28;20752;-69
2020/12/22 09:43:47;;;;;;;5.27;1.90;;;;;;;;;;5030540;28;20307;-69
2020/12/22 09:46:15;;;;;;;6.77;1.67;;;;;;;;;;5026340;28;20273;-68
2020/12/22 09:48:40;;;;;;;4.53;1.98;;;;;;;;;;5022110;28;20268;-69
2020/12/22 09:51:12;;;;;;;3.23;1.40;;;;;;;;;;5029192;28;20102;-69
2020/12/22 09:53:38;;;;;;;3.33;1.08;;;;;;;;;;5022817;28;20264;-68
2020/12/22 09:56:03;;;;;;;5.70;1.08;;;;;;;;;;5029176;28;20056;-68
2020/12/22 09:58:28;;;;;;;3.53;1.00;;;;;;;;;;5025148;28;20038;-68
2020/12/22 10:00:53;;;;;;;4.53;0.93;;;;;;;;;;5026048;28;20272;-69
2020/12/22 10:03:18;;;;;;;2.10;0.80;;;;;;;;;;5025119;28;20288;-70
2020/12/22 10:05:43;;;;;;;3.03;0.50;;;;;;;;;;5029444;28;20268;-69
2020/12/22 10:08:09;;;;;;;1.03;0.40;;;;;;;;;;5023509;28;20271;-69
2020/12/22 10:10:34;;;;;;;9.30;0.93;;;;;;;;;;5030057;28;20317;-70
2020/12/22 10:12:59;;;;;;;1.87;0.60;;;;;;;;;;5028331;28;20264;-69
2020/12/22 10:15:24;;;;;;;2.37;0.63;;;;;;;;;;5027260;28;20284;-69
2020/12/22 10:17:49;;;;;;;4.40;0.77;;;;;;;;;;5028982;28;20346;-69
2020/12/22 10:20:14;;;;;;;1.23;0.73;;;;;;;;;;5024911;28;20344;-69
2020/12/22 10:22:39;;;;;;;2.33;0.77;;;;;;;;;;5034341;28;20294;-69
2020/12/22 10:25:05;;;;;;;1.53;0.67;;;;;;;;;;5040009;28;20315;-69
2020/12/22 10:27:30;;;;;;;1.77;0.80;;;;;;;;;;5027218;28;20271;-69
2020/12/22 10:29:55;;;;;;;3.93;1.37;;;;;;;;;;5027059;28;20272;-69
2020/12/22 10:32:20;;;;;;;3.87;1.30;;;;;;;;;;5022735;28;20307;-69
2020/12/22 10:34:45;;;;;;;2.47;0.90;;;;;;;;;;5027816;28;20276;-69
2020/12/22 10:37:10;;;;;;;4.78;1.38;;;;;;;;;;5028006;28;20264;-69
2020/12/22 10:39:36;;;;;;;2.93;1.20;;;;;;;;;;5031076;28;20138;-69
2020/12/22 10:42:01;;;;;;;5.15;1.67;;;;;;;;;;5029221;28;20260;-70
2020/12/22 10:44:26;;;;;;;2.87;1.23;;;;;;;;;;5031009;28;20032;-70
2020/12/22 10:46:51;;;;;;;4.47;1.50;;;;;;;;;;5030668;28;20259;-69
2020/12/22 10:49:16;;;;;;;3.97;1.33;;;;;;;;;;5028872;28;20355;-70
2020/12/22 10:51:42;;;;;;;6.23;2.23;;;;;;;;;;5025326;28;20096;-69
2020/12/22 10:54:07;;;;;;;6.22;1.38;;;;;;;;;;5018083;28;20318;-69
2020/12/22 10:56:32;;;;;;;4.72;1.23;;;;;;;;;;5020481;28;20029;-69
2020/12/22 10:58:58;;;;;;;5.43;1.47;;;;;;;;;;5021753;28;20052;-69
2020/12/22 11:01:23;;;;;;;6.22;2.42;;;;;;;;;;5020248;28;20664;-69
2020/12/22 11:03:49;;;;;;;15.68;1.42;;;;;;;;;;5015155;28;20022;-69
2020/12/22 11:08:59;;;;;;;6.78;1.98;;;;;;;;;;5022983;28;20512;-69
2020/12/22 11:11:25;;;;;;;4.05;1.25;;;;;;;;;;5023825;28;20034;-69
2020/12/22 11:13:50;;;;;;;5.60;1.27;;;;;;;;;;5022603;28;20060;-70
2020/12/22 11:16:15;;;;;;;4.00;1.20;;;;;;;;;;5024584;28;20454;-69
2020/12/22 11:18:40;;;;;;;2.13;0.50;;;;;;;;;;5023649;28;20022;-69
2020/12/22 11:21:12;;;;;;;2.72;0.50;;;;;;;;;;5022954;28;20280;-68
2020/12/22 11:23:37;;;;;;;3.20;1.48;;;;;;;;;;5021733;28;20028;-69
2020/12/22 11:26:03;;;;;;;4.80;0.98;;;;;;;;;;5023309;28;20393;-72
2020/12/22 11:28:28;;;;;;;4.38;0.93;;;;;;;;;;5022136;28;20031;-69
2020/12/22 11:30:53;;;;;;;5.60;1.20;;;;;;;;;;5024712;28;20044;-69
2020/12/22 11:33:18;;;;;;;3.93;1.37;;;;;;;;;;5020477;28;20287;-68
2020/12/22 11:35:43;;;;;;;4.57;1.20;;;;;;;;;;5024030;28;20633;-70
2020/12/22 11:38:08;;;;;;;4.70;1.07;;;;;;;;;;5025149;28;20260;-69
2020/12/22 11:40:34;;;;;;;2.27;0.90;;;;;;;;;;5024073;28;20893;-70
2020/12/22 11:42:59;;;;;;;2.40;0.77;;;;;;;;;;5023418;28;20275;-69
2020/12/22 11:45:24;;;;;;;4.65;1.10;;;;;;;;;;5021960;28;20033;-70
2020/12/22 11:47:49;;;;;;;5.87;1.30;;;;;;;;;;5023083;28;20072;-69
2020/12/22 11:50:15;;;;;;;4.20;1.13;;;;;;;;;;5023973;28;20284;-69
2020/12/22 11:52:41;;;;;;;3.67;1.45;;;;;;;;;;5023019;28;20021;-70
2020/12/22 11:55:06;;;;;;;6.60;1.30;;;;;;;;;;5022332;28;20028;-69
2020/12/22 11:57:31;;;;;;;4.13;1.63;;;;;;;;;;5024807;28;20021;-70
2020/12/22 11:59:57;;;;;;;8.50;1.10;;;;;;;;;;5023861;28;21095;-70
2020/12/22 12:02:22;;;;;;;3.17;0.83;;;;;;;;;;5022559;28;20108;-69
2020/12/22 12:04:47;;;;;;;4.10;1.30;;;;;;;;;;5022999;28;20264;-69
2020/12/22 12:07:12;;;;;;;3.77;1.30;;;;;;;;;;5021472;28;20447;-68
2020/12/22 12:09:38;;;;;;;3.27;1.27;;;;;;;;;;5019623;28;20267;-69
2020/12/22 12:12:03;;;;;;;3.80;1.08;;;;;;;;;;5020491;28;20268;-69
2020/12/22 12:14:28;;;;;;;3.53;1.17;;;;;;;;;;5022571;28;20041;-69
2020/12/22 12:16:53;;;;;;;3.55;1.20;;;;;;;;;;5024415;28;20264;-69
2020/12/22 12:19:19;;;;;;;4.10;1.53;;;;;;;;;;5023976;28;20029;-69
2020/12/22 12:21:44;;;;;;;2.75;1.20;;;;;;;;;;5020180;28;20275;-69
2020/12/22 12:24:09;;;;;;;4.18;1.48;;;;;;;;;;5021038;28;20540;-69
2020/12/22 12:26:35;;;;;;;9.00;1.50;;;;;;;;;;5022916;28;20100;-69
2020/12/22 12:29:01;;;;;;;7.32;1.90;;;;;;;;;;5022378;28;20025;-69
2020/12/22 12:31:28;;;;;;;4.72;1.92;;;;;;;;;;5023313;28;20059;-69
2020/12/22 12:33:53;;;;;;;7.60;1.90;;;;;;;;;;5021618;28;20025;-69
2020/12/22 12:36:18;;;;;;;5.72;2.10;;;;;;;;;;5023979;28;20033;-69
2020/12/22 12:38:44;;;;;;;10.18;2.50;;;;;;;;;;5023579;28;20739;-69
2020/12/22 12:41:10;;;;;;;7.67;2.97;;;;;;;;;;5023753;28;20014;-69
2020/12/22 12:43:35;;;;;;;12.88;2.17;;;;;;;;;;5022375;28;20267;-69
2020/12/22 12:46:00;;;;;;;9.68;2.28;;;;;;;;;;5023473;28;20096;-69
2020/12/22 12:48:26;;;;;;;7.63;2.50;;;;;;;;;;5022971;28;20041;-68
2020/12/22 12:50:51;;;;;;;10.25;2.60;;;;;;;;;;5023377;28;20087;-68
2020/12/22 12:53:16;;;;;;;11.32;3.13;;;;;;;;;;5023813;28;20060;-69
2020/12/22 12:55:41;;;;;;;9.93;3.53;;;;;;;;;;5023102;28;20026;-69
2020/12/22 12:58:06;;;;;;;7.65;3.28;;;;;;;;;;5023372;28;20276;-67
2020/12/22 13:00:31;;;;;;;8.05;3.83;;;;;;;;;;5023439;28;20148;-67
2020/12/22 13:02:57;;;;;;;6.87;2.47;;;;;;;;;;5024037;28;20382;-68
2020/12/22 13:05:22;;;;;;;5.88;2.50;;;;;;;;;;5019577;28;20369;-67
2020/12/22 13:07:47;;;;;;;7.78;1.83;;;;;;;;;;5022024;28;20033;-65
2020/12/22 13:10:13;;;;;;;7.10;2.25;;;;;;;;;;5020557;28;20423;-68
2020/12/22 13:12:38;;;;;;;9.63;2.15;;;;;;;;;;5020840;28;20519;-66
2020/12/22 13:15:04;;;;;;;6.22;2.30;;;;;;;;;;5022480;28;20025;-67
2020/12/22 13:17:29;;;;;;;5.30;1.88;;;;;;;;;;5023439;28;20458;-67
2020/12/22 13:19:54;;;;;;;5.90;2.50;;;;;;;;;;5022510;28;20017;-66
2020/12/22 13:22:19;;;;;;;6.90;2.22;;;;;;;;;;5022196;28;20026;-68
2020/12/22 13:24:44;;;;;;;3.87;1.27;;;;;;;;;;5021254;28;20017;-66
2020/12/22 13:27:10;;;;;;;7.03;1.20;;;;;;;;;;5023293;28;20980;-68
2020/12/22 13:29:35;;;;;;;2.80;1.10;;;;;;;;;;5021731;28;20274;-67
2020/12/22 13:32:00;;;;;;;5.30;1.50;;;;;;;;;;5021384;28;20264;-66
2020/12/22 13:34:25;;;;;;;5.27;1.47;;;;;;;;;;5021065;28;20295;-68
2020/12/22 13:36:51;;;;;;;7.60;1.50;;;;;;;;;;5019516;28;20279;-68
2020/12/22 13:39:20;;;;;;;7.43;1.92;;;;;;;;;;5022347;28;21182;-68
2020/12/22 13:41:46;;;;;;;8.15;1.90;;;;;;;;;;5017321;28;20040;-66
2020/12/22 13:44:11;;;;;;;8.13;2.40;;;;;;;;;;5020912;28;20022;-67
2020/12/22 13:46:36;;;;;;;7.85;2.20;;;;;;;;;;5018125;28;20475;-67
2020/12/22 13:49:02;;;;;;;10.50;3.70;;;;;;;;;;5020113;28;20029;-67
2020/12/22 13:51:27;;;;;;;8.48;3.55;;;;;;;;;;5017644;28;20272;-69
2020/12/22 13:53:52;;;;;;;11.35;3.97;;;;;;;;;;5021329;28;20030;-69
2020/12/22 13:56:18;;;;;;;13.57;2.80;;;;;;;;;;5018431;28;20033;-69
2020/12/22 13:58:43;;;;;;;8.95;3.13;;;;;;;;;;5023089;28;20276;-68
2020/12/22 14:01:09;;;;;;;7.40;2.45;;;;;;;;;;5022880;28;20030;-70
2020/12/22 14:03:34;;;;;;;7.40;2.42;;;;;;;;;;5021897;28;20094;-69
2020/12/22 14:05:59;;;;;;;6.87;2.23;;;;;;;;;;5017590;28;20030;-69
2020/12/22 14:08:24;;;;;;;6.95;1.83;;;;;;;;;;5022523;28;20287;-69
2020/12/22 14:10:50;;;;;;;12.67;3.23;;;;;;;;;;5020973;28;20044;-69
2020/12/22 14:13:16;;;;;;;4.55;1.55;;;;;;;;;;5021924;28;20276;-70
2020/12/22 14:15:42;;;;;;;9.30;1.98;;;;;;;;;;5020440;28;20481;-70
2020/12/22 14:18:07;;;;;;;11.63;2.20;;;;;;;;;;5015134;28;20125;-69
2020/12/22 14:20:32;;;;;;;5.03;1.47;;;;;;;;;;5021673;28;20272;-69
2020/12/22 14:22:57;;;;;;;5.55;1.75;;;;;;;;;;5023240;28;20268;-69
2020/12/22 14:25:22;;;;;;;10.90;1.90;;;;;;;;;;5021435;28;20034;-70
2020/12/22 14:27:47;;;;;;;7.43;2.13;;;;;;;;;;5018491;28;20057;-69
2020/12/22 14:30:13;;;;;;;5.85;1.52;;;;;;;;;;5019612;28;20265;-70
2020/12/22 14:32:38;;;;;;;12.87;1.77;;;;;;;;;;5022222;28;20071;-70
2020/12/22 14:35:03;;;;;;;5.72;1.38;;;;;;;;;;5022247;28;20351;-70
2020/12/22 14:37:28;;;;;;;4.30;1.40;;;;;;;;;;5019178;28;20065;-70